Time;durP1;ratioP1;P1;durP2;ratioP2;P2;SDS_P1;SDS_P2;PMS_P1;PMS_P2;Temp;Humidity;BMP_temperature;BMP_pressure;BME280_temperature;BME280_humidity;BME280_pressure;Samples;Min_cycle;Max_cycle;Signal;HPM_P1;HPM_P2
2022/06/09 00:01:17;;;;;;;2.72;2.10;;;16.80;99.90;;;;;;4994077;28;20121;-85
2022/06/09 00:03:49;;;;;;;7.20;2.83;;;16.90;99.90;;;;;;4973927;28;20490;-86
2022/06/09 00:06:16;;;;;;;5.75;2.50;;;16.80;99.90;;;;;;4993749;28;20077;-86
2022/06/09 00:08:47;;;;;;;6.38;2.75;;;16.70;99.90;;;;;;4993858;28;20443;-85
2022/06/09 00:11:16;;;;;;;2.90;2.60;;;16.90;99.90;;;;;;4993656;28;20046;-85
2022/06/09 00:13:43;;;;;;;4.10;2.72;;;16.80;99.90;;;;;;4992550;28;20117;-85
2022/06/09 00:16:10;;;;;;;3.28;2.70;;;16.70;99.90;;;;;;4993757;28;20063;-86
2022/06/09 00:18:36;;;;;;;4.03;2.60;;;16.70;99.90;;;;;;4994829;28;20106;-85
2022/06/09 00:21:02;;;;;;;2.83;2.50;;;17.00;99.90;;;;;;4992720;28;20030;-85
2022/06/09 00:23:28;;;;;;;3.20;2.20;;;16.70;99.90;;;;;;4992276;28;20023;-85
2022/06/09 00:25:53;;;;;;;4.13;2.08;;;16.60;99.90;;;;;;4992019;28;20026;-85
2022/06/09 00:28:19;;;;;;;5.40;2.03;;;16.60;99.90;;;;;;4993212;28;20084;-85
2022/06/09 00:30:46;;;;;;;2.75;1.90;;;16.70;99.90;;;;;;4994582;28;20125;-85
2022/06/09 00:33:12;;;;;;;2.17;2.03;;;16.80;99.90;;;;;;4994345;28;20026;-86
2022/06/09 00:35:37;;;;;;;3.63;2.17;;;16.70;99.90;;;;;;4992607;28;20048;-85
2022/06/09 00:38:03;;;;;;;3.28;2.30;;;16.70;99.90;;;;;;4993332;28;20018;-85
2022/06/09 00:40:29;;;;;;;4.28;2.30;;;16.80;99.90;;;;;;4993364;28;20074;-85
2022/06/09 00:42:55;;;;;;;5.70;2.70;;;16.90;99.90;;;;;;4991928;28;20033;-86
2022/06/09 00:45:45;;;;;;;3.90;2.50;;;16.90;99.90;;;;;;4995519;28;20038;-85
2022/06/09 00:48:33;;;;;;;5.35;3.05;;;17.00;99.90;;;;;;4975919;28;20027;-86
2022/06/09 00:51:11;;;;;;;4.72;2.80;;;17.00;99.90;;;;;;4992050;28;20138;-86
2022/06/09 00:53:39;;;;;;;2.75;2.50;;;16.70;99.90;;;;;;4975791;28;20026;-86
2022/06/09 00:56:06;;;;;;;3.60;2.60;;;16.70;99.90;;;;;;4992632;28;20034;-86
2022/06/09 00:58:36;;;;;;;3.35;2.38;;;16.80;99.90;;;;;;4991503;28;20462;-86
2022/06/09 01:01:08;;;;;;;2.88;2.28;;;16.80;99.90;;;;;;4992767;28;20081;-86
2022/06/09 01:03:40;;;;;;;2.95;2.65;;;16.90;99.90;;;;;;4993681;28;20106;-86
2022/06/09 01:06:10;;;;;;;3.03;2.72;;;16.90;99.90;;;;;;4992038;28;20030;-86
2022/06/09 01:08:43;;;;;;;3.80;2.80;;;17.00;99.90;;;;;;4992553;28;20058;-85
2022/06/09 01:11:09;;;;;;;4.38;2.97;;;17.00;99.90;;;;;;4992295;28;20506;-86
2022/06/09 01:13:35;;;;;;;5.05;3.20;;;17.00;99.90;;;;;;4992749;28;20081;-86
2022/06/09 01:16:08;;;;;;;7.22;3.10;;;17.00;99.90;;;;;;4974843;28;22923;-85
2022/06/09 01:19:02;;;;;;;4.82;2.92;;;17.10;99.90;;;;;;4989535;28;20030;-85
2022/06/09 01:21:55;;;;;;;3.88;2.78;;;17.00;99.90;;;;;;4992784;28;20553;-85
2022/06/09 01:24:30;;;;;;;4.45;2.90;;;17.00;99.90;;;;;;4992594;28;20109;-84
2022/06/09 01:27:05;;;;;;;5.32;3.03;;;17.10;99.90;;;;;;4975202;28;20117;-85
2022/06/09 01:30:06;;;;;;;3.67;2.70;;;17.10;99.90;;;;;;4992257;28;20019;-85
2022/06/09 01:32:39;;;;;;;5.15;2.60;;;17.00;99.90;;;;;;4973399;28;20038;-85
2022/06/09 01:35:11;;;;;;;3.13;2.40;;;16.90;99.90;;;;;;4990390;28;20038;-85
2022/06/09 01:37:44;;;;;;;7.55;2.83;;;17.00;99.90;;;;;;4992370;28;20031;-85
2022/06/09 01:40:13;;;;;;;3.95;2.80;;;17.10;99.90;;;;;;4975561;28;20089;-85
2022/06/09 01:42:44;;;;;;;4.72;3.20;;;17.10;99.90;;;;;;4994042;28;20019;-84
2022/06/09 01:45:13;;;;;;;4.15;3.05;;;17.10;99.90;;;;;;4992907;28;20455;-85
2022/06/09 01:47:57;;;;;;;3.47;2.90;;;17.00;99.90;;;;;;4991889;28;20046;-85
2022/06/09 01:51:00;;;;;;;3.30;2.92;;;17.00;99.90;;;;;;4990767;28;20121;-84
2022/06/09 01:53:31;;;;;;;3.83;2.97;;;17.00;99.90;;;;;;4991561;28;20379;-85
2022/06/09 01:56:20;;;;;;;4.25;3.05;;;17.40;99.90;;;;;;4991845;28;20034;-85
2022/06/09 01:58:54;;;;;;;4.53;3.30;;;17.20;99.90;;;;;;4991868;28;20050;-85
2022/06/09 02:01:29;;;;;;;3.70;3.10;;;17.20;99.90;;;;;;4991848;28;20450;-85
2022/06/09 02:03:57;;;;;;;3.90;3.00;;;17.20;99.90;;;;;;4990026;28;20090;-85
2022/06/09 02:06:24;;;;;;;3.92;3.22;;;17.20;99.90;;;;;;4976259;28;20023;-85
2022/06/09 02:08:50;;;;;;;3.33;2.90;;;17.20;99.90;;;;;;4991215;28;20027;-85
2022/06/09 02:11:16;;;;;;;3.67;2.63;;;17.60;99.90;;;;;;4991490;28;20034;-85
2022/06/09 02:13:47;;;;;;;7.90;3.00;;;17.30;99.90;;;;;;4991557;28;20372;-85
2022/06/09 02:16:21;;;;;;;5.40;3.05;;;17.30;99.90;;;;;;4991668;28;20506;-85
2022/06/09 02:18:51;;;;;;;4.43;2.70;;;17.20;99.90;;;;;;4990583;28;20077;-85
2022/06/09 02:21:22;;;;;;;3.97;2.70;;;17.20;99.90;;;;;;4969613;28;20026;-85
2022/06/09 02:23:48;;;;;;;6.03;2.85;;;17.10;99.90;;;;;;4989821;28;20030;-85
2022/06/09 02:26:16;;;;;;;5.38;2.60;;;17.10;99.90;;;;;;4991383;28;20166;-85
2022/06/09 02:28:42;;;;;;;6.10;2.30;;;17.00;99.90;;;;;;4991278;28;20033;-85
2022/06/09 02:31:08;;;;;;;4.50;2.58;;;17.00;99.90;;;;;;4991380;28;20077;-85
2022/06/09 02:33:33;;;;;;;6.00;2.75;;;17.00;99.90;;;;;;4992109;28;20074;-84
2022/06/09 02:35:59;;;;;;;4.88;2.63;;;17.00;99.90;;;;;;4990294;28;20578;-85
2022/06/09 02:38:25;;;;;;;5.25;2.67;;;16.90;99.90;;;;;;4990799;28;20023;-85
2022/06/09 02:40:56;;;;;;;4.50;2.70;;;17.00;99.90;;;;;;4973892;28;20022;-85
2022/06/09 02:43:23;;;;;;;7.82;2.63;;;16.90;99.90;;;;;;4989128;28;20081;-84
2022/06/09 02:45:50;;;;;;;6.00;2.85;;;16.90;99.90;;;;;;4991605;28;20026;-85
2022/06/09 02:48:17;;;;;;;4.47;2.78;;;17.00;99.90;;;;;;4991857;28;20475;-85
2022/06/09 02:50:43;;;;;;;8.20;3.05;;;17.00;99.90;;;;;;4990962;28;20030;-85
2022/06/09 02:53:09;;;;;;;4.72;3.35;;;17.00;99.90;;;;;;4990616;28;20022;-85
2022/06/09 02:55:35;;;;;;;4.53;2.70;;;17.00;99.90;;;;;;4990980;28;20037;-85
2022/06/09 02:58:01;;;;;;;4.70;2.70;;;16.90;99.90;;;;;;4990788;28;20480;-85
2022/06/09 03:00:27;;;;;;;4.57;2.72;;;16.90;99.90;;;;;;4990304;28;20037;-85
2022/06/09 03:02:54;;;;;;;5.80;2.53;;;16.90;99.90;;;;;;4989438;28;20023;-85
2022/06/09 03:05:21;;;;;;;4.05;2.47;;;16.90;99.90;;;;;;4990928;28;20038;-85
2022/06/09 03:07:47;;;;;;;5.03;2.40;;;16.90;99.90;;;;;;4990354;28;20069;-85
2022/06/09 03:10:13;;;;;;;5.85;2.47;;;16.80;99.90;;;;;;4973628;28;20577;-85
2022/06/09 03:12:38;;;;;;;3.67;2.40;;;16.90;99.90;;;;;;4992673;28;20101;-85
2022/06/09 03:15:07;;;;;;;6.18;2.42;;;16.80;99.90;;;;;;4991088;28;20157;-85
2022/06/09 03:17:34;;;;;;;5.18;2.60;;;16.70;99.90;;;;;;4990392;28;20050;-85
2022/06/09 03:19:59;;;;;;;4.30;2.20;;;16.90;99.90;;;;;;4990359;28;20125;-84
2022/06/09 03:22:25;;;;;;;5.22;2.00;;;16.60;99.90;;;;;;4990416;28;20511;-85
2022/06/09 03:24:51;;;;;;;6.25;2.33;;;16.80;99.90;;;;;;4991275;28;20030;-85
2022/06/09 03:27:16;;;;;;;4.43;2.22;;;16.80;99.90;;;;;;4992273;28;20101;-84
2022/06/09 03:29:42;;;;;;;7.45;2.42;;;16.80;99.90;;;;;;4990313;28;20050;-85
2022/06/09 03:32:08;;;;;;;7.45;2.60;;;16.80;99.90;;;;;;4988170;28;20033;-85
2022/06/09 03:34:34;;;;;;;5.50;2.22;;;16.90;99.90;;;;;;4989861;28;20047;-85
2022/06/09 03:37:00;;;;;;;3.60;2.30;;;16.90;99.90;;;;;;4990292;28;20576;-85
2022/06/09 03:39:26;;;;;;;6.05;2.33;;;17.00;1.00;;;;;;4991584;28;20034;-85
2022/06/09 03:41:51;;;;;;;4.35;2.45;;;17.40;99.90;;;;;;4988981;28;20018;-85
2022/06/09 03:44:17;;;;;;;5.03;2.50;;;17.00;99.90;;;;;;4990402;28;20026;-84
2022/06/09 03:46:43;;;;;;;7.13;2.80;;;17.00;99.90;;;;;;4990017;28;20480;-85
2022/06/09 03:49:09;;;;;;;7.90;2.90;;;16.90;99.90;;;;;;4990707;28;20078;-85
2022/06/09 03:51:35;;;;;;;6.60;2.85;;;16.90;99.90;;;;;;4988199;28;20034;-85
2022/06/09 03:54:01;;;;;;;7.38;2.90;;;16.90;99.90;;;;;;4990283;28;20030;-85
2022/06/09 03:56:26;;;;;;;7.82;3.17;;;16.80;99.90;;;;;;4993195;28;20109;-85
2022/06/09 03:58:52;;;;;;;9.98;3.03;;;16.80;99.90;;;;;;4993946;28;20033;-85
2022/06/09 04:01:18;;;;;;;11.38;2.85;;;16.70;99.90;;;;;;4991753;28;20023;-85
2022/06/09 04:03:46;;;;;;;8.13;3.17;;;16.80;99.90;;;;;;4995163;28;20530;-85
2022/06/09 04:06:15;;;;;;;8.75;2.92;;;16.90;99.90;;;;;;4994938;28;20446;-85
2022/06/09 04:08:41;;;;;;;8.13;2.85;;;16.90;99.90;;;;;;4976562;28;20030;-85
2022/06/09 04:11:09;;;;;;;9.55;3.28;;;16.90;99.90;;;;;;4993613;28;20117;-85
2022/06/09 04:13:35;;;;;;;4.05;2.50;;;16.90;99.90;;;;;;4993773;28;20498;-85
2022/06/09 04:16:01;;;;;;;11.52;3.30;;;16.90;99.90;;;;;;4991844;28;20022;-85
2022/06/09 04:18:27;;;;;;;11.75;4.00;;;17.00;99.90;;;;;;4994241;28;20040;-85
2022/06/09 04:20:52;;;;;;;8.10;3.58;;;17.00;99.90;;;;;;4992180;28;20026;-85
2022/06/09 04:23:18;;;;;;;9.23;3.13;;;16.90;99.90;;;;;;4993541;28;20026;-84
2022/06/09 04:25:43;;;;;;;9.23;3.38;;;17.00;99.90;;;;;;4993469;28;20102;-85
2022/06/09 04:28:09;;;;;;;7.88;3.35;;;17.00;99.90;;;;;;4992329;28;20251;-85
2022/06/09 04:30:35;;;;;;;6.45;3.10;;;17.00;99.90;;;;;;4989754;28;20045;-85
2022/06/09 04:33:00;;;;;;;11.85;3.72;;;17.00;99.90;;;;;;4992924;28;20030;-85
2022/06/09 04:35:26;;;;;;;8.65;3.30;;;17.00;99.90;;;;;;4993364;28;20038;-85
2022/06/09 04:38:00;;;;;;;10.40;3.75;;;17.00;99.90;;;;;;4993314;28;20030;-85
2022/06/09 04:40:35;;;;;;;9.27;3.70;;;16.90;99.90;;;;;;4992040;28;20057;-84
2022/06/09 04:43:01;;;;;;;9.23;3.45;;;16.90;99.90;;;;;;4992692;28;20031;-85
2022/06/09 04:45:27;;;;;;;9.45;3.35;;;16.90;99.90;;;;;;4992923;28;20057;-85
2022/06/09 04:47:53;;;;;;;9.80;3.53;;;17.00;99.90;;;;;;4992681;28;20439;-85
2022/06/09 04:50:19;;;;;;;9.32;3.35;;;17.10;99.90;;;;;;4993074;28;20104;-85
2022/06/09 04:52:46;;;;;;;9.55;3.13;;;17.10;99.90;;;;;;4993052;28;20036;-84
2022/06/09 04:55:12;;;;;;;14.70;4.10;;;17.00;99.90;;;;;;4991871;28;20073;-85
2022/06/09 04:57:38;;;;;;;10.35;3.70;;;17.10;99.90;;;;;;4977733;28;20026;-85
2022/06/09 05:00:09;;;;;;;9.93;3.60;;;17.00;99.90;;;;;;4990250;28;20487;-85
2022/06/09 05:02:35;;;;;;;9.48;4.22;;;17.00;99.90;;;;;;4990624;28;20085;-84
2022/06/09 05:05:01;;;;;;;11.60;3.88;;;16.90;99.90;;;;;;4975630;28;20030;-85
2022/06/09 05:07:27;;;;;;;12.07;3.85;;;16.90;99.90;;;;;;4991900;28;20030;-85
2022/06/09 05:09:53;;;;;;;12.68;4.63;;;16.90;99.90;;;;;;4992878;28;20522;-85
2022/06/09 05:12:20;;;;;;;10.05;4.40;;;16.90;99.90;;;;;;4994795;28;20052;-84
2022/06/09 05:14:45;;;;;;;7.90;4.53;;;16.90;99.90;;;;;;4975568;28;20494;-85
2022/06/09 05:17:11;;;;;;;12.45;4.85;;;17.00;99.90;;;;;;4992347;28;20029;-86
2022/06/09 05:19:36;;;;;;;9.55;4.85;;;17.00;99.90;;;;;;4992780;28;20023;-85
2022/06/09 05:22:02;;;;;;;13.13;4.97;;;17.00;99.90;;;;;;4975182;28;20445;-85
2022/06/09 05:24:28;;;;;;;7.93;5.03;;;17.00;99.90;;;;;;4994468;28;20113;-85
2022/06/09 05:26:53;;;;;;;11.43;4.22;;;17.10;99.90;;;;;;4992283;28;20407;-85
2022/06/09 05:29:19;;;;;;;8.07;4.10;;;17.10;99.90;;;;;;4991099;28;20026;-84
2022/06/09 05:31:45;;;;;;;9.77;3.70;;;17.10;99.90;;;;;;4991647;28;20559;-85
2022/06/09 05:34:11;;;;;;;9.80;3.50;;;17.10;99.90;;;;;;4990181;28;20129;-85
2022/06/09 05:36:37;;;;;;;8.13;4.07;;;17.10;99.90;;;;;;4994414;28;20053;-85
2022/06/09 05:47:19;;;;;;;9.63;4.32;;;16.90;99.90;;;;;;4991965;28;20041;-85
2022/06/09 05:49:47;;;;;;;8.98;4.15;;;16.70;99.90;;;;;;4991570;28;20399;-85
2022/06/09 05:52:16;;;;;;;8.82;3.80;;;16.70;99.90;;;;;;4992700;28;20081;-85
2022/06/09 05:54:43;;;;;;;9.90;4.43;;;16.60;99.90;;;;;;4993229;28;20018;-84
2022/06/09 05:57:09;;;;;;;8.68;3.92;;;16.60;99.90;;;;;;4990609;28;20479;-85
2022/06/09 05:59:35;;;;;;;12.23;3.90;;;16.60;99.90;;;;;;4990759;28;20042;-84
2022/06/09 06:02:01;;;;;;;8.07;4.10;;;16.60;99.90;;;;;;4984078;28;20104;-85
2022/06/09 06:04:27;;;;;;;8.20;3.92;;;16.60;99.90;;;;;;4989778;28;20042;-84
2022/06/09 06:06:52;;;;;;;9.70;3.83;;;16.60;99.90;;;;;;4991655;28;20549;-85
2022/06/09 06:09:21;;;;;;;7.85;3.30;;;16.80;99.90;;;;;;4992452;28;20022;-84
2022/06/09 06:11:47;;;;;;;7.00;3.42;;;16.80;99.90;;;;;;4991297;28;20041;-86
2022/06/09 06:14:14;;;;;;;7.97;3.28;;;16.90;99.90;;;;;;4990184;28;20053;-85
2022/06/09 06:16:41;;;;;;;7.97;3.17;;;17.00;99.90;;;;;;4971662;28;20034;-86
2022/06/09 06:19:09;;;;;;;9.80;3.45;;;16.90;99.90;;;;;;4991476;28;20034;-85
2022/06/09 06:21:36;;;;;;;6.32;3.70;;;16.90;99.90;;;;;;4989809;28;20093;-86
2022/06/09 06:24:04;;;;;;;8.80;3.35;;;17.00;99.90;;;;;;4989389;28;20057;-86
2022/06/09 06:26:30;;;;;;;7.10;3.33;;;17.10;99.90;;;;;;4988772;28;20026;-84
2022/06/09 06:28:55;;;;;;;8.68;3.30;;;17.00;99.90;;;;;;4990079;28;20049;-84
2022/06/09 06:31:21;;;;;;;7.00;4.05;;;17.00;99.90;;;;;;4991408;28;20030;-85
2022/06/09 06:33:47;;;;;;;11.38;4.00;;;17.00;99.90;;;;;;4991948;28;20477;-85
2022/06/09 06:36:12;;;;;;;11.38;3.80;;;17.00;99.90;;;;;;4992242;28;20040;-85
2022/06/09 06:38:39;;;;;;;8.75;3.28;;;17.00;99.90;;;;;;4989483;28;20087;-86
2022/06/09 06:41:06;;;;;;;7.18;3.28;;;17.00;99.90;;;;;;4989499;28;20140;-85
2022/06/09 06:43:32;;;;;;;7.88;3.00;;;17.00;99.90;;;;;;4990834;28;20025;-86
2022/06/09 06:45:58;;;;;;;14.50;3.45;;;16.80;99.90;;;;;;4991054;28;20034;-85
2022/06/09 06:48:23;;;;;;;8.25;3.47;;;16.90;99.90;;;;;;4991831;28;20033;-86
2022/06/09 06:50:49;;;;;;;13.30;4.03;;;17.00;99.90;;;;;;4990529;28;20045;-86
2022/06/09 06:53:15;;;;;;;7.30;3.30;;;17.00;99.90;;;;;;4971829;28;20050;-86
2022/06/09 06:55:41;;;;;;;10.73;3.30;;;17.20;99.90;;;;;;4989785;28;20030;-85
2022/06/09 06:58:07;;;;;;;10.77;3.38;;;17.10;99.90;;;;;;4990674;28;20037;-85
2022/06/09 07:00:34;;;;;;;10.68;3.60;;;17.00;99.90;;;;;;4993034;28;20060;-85
2022/06/09 07:03:00;;;;;;;11.02;3.45;;;17.10;99.90;;;;;;4989607;28;20027;-85
2022/06/09 07:05:26;;;;;;;12.05;3.95;;;17.10;99.90;;;;;;4989804;28;20037;-85
2022/06/09 07:07:51;;;;;;;12.95;3.65;;;17.10;99.90;;;;;;4990579;28;20054;-85
2022/06/09 07:10:18;;;;;;;9.40;3.60;;;17.20;99.90;;;;;;4973321;28;20042;-86
2022/06/09 07:12:44;;;;;;;7.97;3.33;;;17.30;99.90;;;;;;4991637;28;20053;-86
2022/06/09 07:15:13;;;;;;;8.38;3.38;;;17.30;99.90;;;;;;4991419;28;20084;-84
2022/06/09 07:17:39;;;;;;;6.43;3.28;;;17.40;99.90;;;;;;4974843;28;20117;-85
2022/06/09 07:20:06;;;;;;;10.27;3.45;;;17.50;99.90;;;;;;4994930;28;20054;-84
2022/06/09 07:22:31;;;;;;;8.80;3.53;;;17.60;99.90;;;;;;4990583;28;20027;-84
2022/06/09 07:24:57;;;;;;;8.70;3.60;;;17.70;99.90;;;;;;4990853;28;20077;-84
2022/06/09 07:27:23;;;;;;;10.23;3.65;;;17.80;99.90;;;;;;4992389;28;20085;-84
2022/06/09 07:29:49;;;;;;;9.38;3.05;;;17.90;99.90;;;;;;4973328;28;20030;-83
2022/06/09 07:32:15;;;;;;;8.70;3.17;;;18.30;99.90;;;;;;4974944;28;20046;-83
2022/06/09 07:34:41;;;;;;;9.35;3.40;;;18.90;99.90;;;;;;4992109;28;20399;-84
2022/06/09 07:37:07;;;;;;;9.30;3.22;;;19.00;99.90;;;;;;4993791;28;20041;-84
2022/06/09 07:39:33;;;;;;;6.53;2.83;;;19.00;99.90;;;;;;4996509;28;20467;-83
2022/06/09 07:41:59;;;;;;;9.10;2.83;;;18.70;99.90;;;;;;4994053;28;20041;-84
2022/06/09 07:44:25;;;;;;;10.13;3.60;;;18.30;99.90;;;;;;4994149;28;20022;-83
2022/06/09 07:46:51;;;;;;;12.10;3.30;;;18.10;99.90;;;;;;4994283;28;20036;-83
2022/06/09 07:49:17;;;;;;;8.32;3.08;;;17.70;99.90;;;;;;4993615;28;20034;-83
2022/06/09 07:51:43;;;;;;;9.43;3.33;;;17.50;99.90;;;;;;4995469;28;20457;-83
2022/06/09 07:54:09;;;;;;;9.90;3.30;;;17.40;99.90;;;;;;4994956;28;20022;-83
2022/06/09 07:56:35;;;;;;;9.82;3.80;;;17.30;99.90;;;;;;4993710;28;20109;-83
2022/06/09 07:59:03;;;;;;;8.15;3.35;;;17.30;99.90;;;;;;4993947;28;20543;-84
2022/06/09 08:01:29;;;;;;;9.88;3.10;;;17.10;99.90;;;;;;4992464;28;20050;-84
2022/06/09 08:03:55;;;;;;;7.57;2.90;;;17.10;99.90;;;;;;4976612;28;20062;-84
2022/06/09 08:06:22;;;;;;;8.90;2.78;;;17.10;99.90;;;;;;4996029;28;20025;-84
2022/06/09 08:08:48;;;;;;;11.10;2.80;;;17.00;99.90;;;;;;4992419;28;20026;-84
2022/06/09 08:11:13;;;;;;;6.07;2.30;;;16.90;99.90;;;;;;4992199;28;20133;-84
2022/06/09 08:13:39;;;;;;;9.02;2.30;;;16.70;99.90;;;;;;4992467;28;20530;-84
2022/06/09 08:16:06;;;;;;;8.07;2.33;;;16.60;99.90;;;;;;4993705;28;20027;-84
2022/06/09 08:18:32;;;;;;;7.28;2.60;;;16.80;99.90;;;;;;4995784;28;20106;-84
2022/06/09 08:20:58;;;;;;;4.38;2.20;;;17.00;99.90;;;;;;4993653;28;20490;-84
2022/06/09 08:23:26;;;;;;;8.48;2.85;;;17.10;99.90;;;;;;4992967;28;20084;-83
2022/06/09 08:25:54;;;;;;;6.43;2.53;;;17.00;99.90;;;;;;4976003;28;20026;-84
2022/06/09 08:28:21;;;;;;;10.25;2.38;;;17.00;99.90;;;;;;4993514;28;20475;-84
2022/06/09 08:30:51;;;;;;;4.53;2.28;;;17.20;99.90;;;;;;4994711;28;20042;-84
2022/06/09 08:33:17;;;;;;;6.78;2.35;;;17.30;99.90;;;;;;4994905;28;20407;-84
2022/06/09 08:35:44;;;;;;;5.13;1.65;;;17.60;99.90;;;;;;4984237;28;20038;-84
2022/06/09 08:38:10;;;;;;;3.08;1.65;;;17.70;99.90;;;;;;4985440;28;20068;-88
2022/06/09 08:40:51;;;;;;;6.40;1.70;;;17.80;99.90;;;;;;4975759;28;20030;-84
2022/06/09 08:43:58;;;;;;;4.20;2.00;;;18.20;99.90;;;;;;4977705;28;20092;-84
2022/06/09 08:46:46;;;;;;;3.03;1.48;;;18.30;99.90;;;;;;4979862;28;20053;-84
2022/06/09 08:49:31;;;;;;;5.25;1.75;;;18.50;99.90;;;;;;4976521;28;20487;-83
2022/06/09 08:52:33;;;;;;;5.75;1.70;;;18.90;99.90;;;;;;4991111;28;20042;-84
2022/06/09 08:55:02;;;;;;;6.72;1.95;;;18.40;99.90;;;;;;4989261;28;20042;-84
2022/06/09 08:57:33;;;;;;;4.65;2.10;;;18.30;99.90;;;;;;4994443;28;20034;-83
2022/06/09 09:00:00;;;;;;;6.78;2.20;;;18.40;99.90;;;;;;4992846;28;20034;-84
2022/06/09 09:02:44;;;;;;;4.30;2.03;;;18.50;99.90;;;;;;4990145;28;20080;-83
2022/06/09 09:05:39;;;;;;;5.68;2.10;;;18.80;99.90;;;;;;4987698;28;20026;-84
2022/06/09 09:08:11;;;;;;;5.70;2.05;;;19.00;99.90;;;;;;4980625;28;20061;-84
2022/06/09 09:10:51;;;;;;;5.32;2.00;;;19.20;99.90;;;;;;4991356;28;20031;-84
2022/06/09 09:13:38;;;;;;;5.53;2.25;;;19.80;99.90;;;;;;4985285;28;20388;-84
2022/06/09 09:16:25;;;;;;;5.95;1.80;;;20.30;99.90;;;;;;4993024;28;20061;-85
2022/06/09 09:18:55;;;;;;;4.15;2.20;;;20.00;99.90;;;;;;4990477;28;20110;-83
2022/06/09 09:21:42;;;;;;;6.57;2.13;;;20.20;99.90;;;;;;4992453;28;20113;-84
2022/06/09 09:24:08;;;;;;;6.28;2.30;;;20.60;99.90;;;;;;4991461;28;20554;-83
2022/06/09 09:27:09;;;;;;;3.13;1.60;;;20.10;99.90;;;;;;4991875;28;20023;-84
2022/06/09 09:29:53;;;;;;;3.78;1.95;;;19.70;99.90;;;;;;4990867;28;20022;-84
2022/06/09 09:32:32;;;;;;;6.50;2.00;;;20.10;99.90;;;;;;4990363;28;20034;-84
2022/06/09 09:34:59;;;;;;;5.72;2.08;;;20.70;99.90;;;;;;4992181;28;20049;-84
2022/06/09 09:37:45;;;;;;;5.20;1.70;;;21.40;99.90;;;;;;4990642;28;20042;-83
2022/06/09 09:40:36;;;;;;;4.15;1.17;;;21.20;99.90;;;;;;4976761;28;20042;-83
2022/06/09 09:43:23;;;;;;;4.10;1.50;;;20.90;99.90;;;;;;4991998;28;20041;-84
2022/06/09 09:45:52;;;;;;;6.05;1.60;;;21.30;99.90;;;;;;4990006;28;20034;-84
2022/06/09 09:48:19;;;;;;;3.70;1.55;;;22.10;99.90;;;;;;4991612;28;20022;-84
2022/06/09 09:50:58;;;;;;;5.47;1.88;;;22.20;99.90;;;;;;4991371;28;20038;-83
2022/06/09 09:53:32;;;;;;;5.22;1.30;;;21.80;99.90;;;;;;4988983;28;20034;-86
2022/06/09 09:56:13;;;;;;;5.28;1.55;;;21.50;99.90;;;;;;4991464;28;20041;-83
2022/06/09 09:58:53;;;;;;;4.80;1.50;;;21.60;99.90;;;;;;4991509;28;20108;-84
2022/06/09 10:01:22;;;;;;;4.70;1.67;;;20.90;99.90;;;;;;4976313;28;20026;-83
2022/06/09 10:09:39;;;;;;;4.32;1.80;;;21.00;99.90;;;;;;4988202;28;20097;-84
2022/06/09 10:12:16;;;;;;;3.05;1.55;;;21.30;99.90;;;;;;4989237;28;20039;-83
2022/06/09 10:14:47;;;;;;;4.00;1.55;;;20.90;99.90;;;;;;4985655;28;20064;-83
2022/06/09 10:17:50;;;;;;;5.07;1.60;;;20.90;99.90;;;;;;4989124;28;20061;-83
2022/06/09 10:20:28;;;;;;;4.32;1.52;;;21.90;99.90;;;;;;4991127;28;20034;-84
2022/06/09 10:23:04;;;;;;;4.68;1.50;;;22.00;99.90;;;;;;4990467;28;20023;-84
2022/06/09 10:25:49;;;;;;;5.70;1.50;;;21.10;99.90;;;;;;4991141;28;20122;-83
2022/06/09 10:28:30;;;;;;;4.80;1.30;;;22.30;99.90;;;;;;4991241;28;20026;-84
2022/06/09 10:31:12;;;;;;;5.07;1.33;;;22.30;99.90;;;;;;4991031;28;20034;-83
2022/06/09 10:33:55;;;;;;;4.97;1.30;;;22.40;99.90;;;;;;4988917;28;20058;-83
2022/06/09 10:36:37;;;;;;;6.93;1.38;;;22.00;99.90;;;;;;4988713;28;20034;-83
2022/06/09 10:39:16;;;;;;;5.80;1.42;;;22.00;99.90;;;;;;4989036;28;20378;-83
2022/06/09 10:41:48;;;;;;;4.05;1.20;;;22.40;99.90;;;;;;4991140;28;20077;-83
2022/06/09 10:44:21;;;;;;;5.93;1.13;;;22.80;99.90;;;;;;4991005;28;20558;-83
2022/06/09 10:55:14;;;;;;;2.92;1.00;;;22.70;99.90;;;;;;4989918;28;20428;-83
2022/06/09 10:55:48;;;;;;;5.10;1.27;;;23.60;99.90;;;;;;4978687;28;20084;-84
2022/06/09 10:58:33;;;;;;;4.57;1.38;;;23.20;99.90;;;;;;4976481;28;20069;-84
2022/06/09 11:00:59;;;;;;;5.57;1.20;;;23.20;99.90;;;;;;4990993;28;20043;-84
2022/06/09 11:03:29;;;;;;;5.60;1.20;;;23.00;99.90;;;;;;4992854;28;20494;-84
2022/06/09 11:06:16;;;;;;;2.53;1.10;;;22.90;99.90;;;;;;4987734;28;20148;-83
2022/06/09 11:09:02;;;;;;;8.07;1.50;;;22.30;99.90;;;;;;4985616;28;20026;-84
2022/06/09 11:11:37;;;;;;;3.92;1.30;;;21.90;99.90;;;;;;4990628;28;20038;-84
2022/06/09 11:14:33;;;;;;;5.40;1.13;;;21.60;99.90;;;;;;4990734;28;20030;-83
2022/06/09 11:17:17;;;;;;;5.15;1.33;;;22.20;99.90;;;;;;4990706;28;20041;-84
2022/06/09 11:19:54;;;;;;;3.50;1.20;;;23.00;99.90;;;;;;4990390;28;20030;-83
2022/06/09 11:22:42;;;;;;;4.20;1.20;;;23.40;99.90;;;;;;4988642;28;20035;-84
2022/06/09 11:25:55;;;;;;;6.28;1.27;;;22.70;99.90;;;;;;4986765;28;20027;-83
2022/06/09 11:28:43;;;;;;;4.15;1.50;;;23.00;99.90;;;;;;4898422;29;20032;-84
2022/06/09 11:31:14;;;;;;;4.15;1.25;;;22.50;99.90;;;;;;4898367;29;20477;-84
2022/06/09 11:34:27;;;;;;;4.93;1.40;;;22.10;99.90;;;;;;4912973;29;20088;-84
2022/06/09 11:37:17;;;;;;;3.88;1.27;;;21.50;99.90;;;;;;4908348;29;20429;-84
2022/06/09 11:40:05;;;;;;;4.40;1.20;;;21.80;99.90;;;;;;4912106;29;20052;-84
2022/06/09 11:42:49;;;;;;;2.95;1.33;;;22.60;99.90;;;;;;4908969;29;20048;-84
2022/06/09 11:45:31;;;;;;;6.95;1.50;;;23.90;99.90;;;;;;4908875;28;20088;-83
2022/06/09 11:48:00;;;;;;;5.30;1.33;;;24.80;99.90;;;;;;4911731;29;20036;-84
2022/06/09 11:50:33;;;;;;;3.50;1.20;;;24.70;99.90;;;;;;4911582;29;20059;-84
2022/06/09 11:53:00;;;;;;;4.22;1.30;;;24.70;99.90;;;;;;4912747;29;20032;-84
2022/06/09 11:58:36;;;;;;;3.33;1.20;;;24.10;99.90;;;;;;4916871;28;20042;-84
2022/06/09 12:01:25;;;;;;;3.88;1.50;;;23.50;99.90;;;;;;4990488;28;20102;-83
2022/06/09 12:04:14;;;;;;;4.53;1.42;;;22.60;99.90;;;;;;4978813;28;20037;-84
2022/06/09 12:06:59;;;;;;;4.68;1.30;;;22.80;99.90;;;;;;4988751;28;20113;-83
2022/06/09 12:09:34;;;;;;;3.83;1.20;;;26.80;99.90;;;;;;4991085;28;20391;-84
2022/06/09 12:12:24;;;;;;;4.90;1.70;;;31.20;99.90;;;;;;4990104;28;20045;-84
2022/06/09 12:15:25;;;;;;;4.47;1.35;;;31.20;99.90;;;;;;4990266;28;20057;-84
2022/06/09 12:18:16;;;;;;;2.63;1.10;;;27.80;99.90;;;;;;4989784;28;20018;-84
2022/06/09 12:20:56;;;;;;;3.28;1.30;;;25.70;99.90;;;;;;4993887;28;20442;-84
2022/06/09 12:23:33;;;;;;;4.38;1.15;;;25.10;99.90;;;;;;4976410;28;20030;-84
2022/06/09 12:26:16;;;;;;;4.40;1.27;;;25.10;99.90;;;;;;4992724;28;20049;-84
2022/06/09 12:28:50;;;;;;;3.13;0.95;;;27.10;99.90;;;;;;4993674;28;20084;-84
2022/06/09 12:31:27;;;;;;;5.05;1.40;;;31.60;99.90;;;;;;4977848;28;20045;-84
2022/06/09 12:34:03;;;;;;;3.60;0.95;;;27.70;99.90;;;;;;4993829;28;20101;-84
2022/06/09 12:36:48;;;;;;;5.30;1.00;;;29.20;99.90;;;;;;4994641;28;20061;-84
2022/06/09 12:39:29;;;;;;;2.95;1.10;;;32.50;99.90;;;;;;4994504;28;20096;-84
2022/06/09 12:42:16;;;;;;;4.10;1.45;;;33.40;99.90;;;;;;4993334;28;20014;-84
2022/06/09 12:45:18;;;;;;;5.18;1.35;;;34.70;99.90;;;;;;4991971;28;20115;-84
2022/06/09 12:47:54;;;;;;;3.58;1.10;;;33.80;99.90;;;;;;4914025;29;20040;-84
2022/06/09 12:50:32;;;;;;;5.85;1.55;;;34.40;99.90;;;;;;4915682;29;20608;-84
2022/06/09 12:52:58;;;;;;;2.58;1.17;;;33.70;99.90;;;;;;4915461;29;20043;-84
2022/06/09 12:55:30;;;;;;;2.80;1.27;;;33.80;99.90;;;;;;4915781;29;20127;-85
2022/06/09 12:58:04;;;;;;;2.83;1.10;;;31.40;99.90;;;;;;4915411;29;20036;-85
2022/06/09 13:00:35;;;;;;;4.80;1.38;;;29.40;99.90;;;;;;4914261;29;20032;-85
2022/06/09 13:03:01;;;;;;;4.13;1.30;;;31.40;99.90;;;;;;4915245;29;20024;-84
2022/06/09 13:05:36;;;;;;;2.08;1.10;;;27.80;99.90;;;;;;4915323;29;20044;-84
2022/06/09 13:08:18;;;;;;;2.90;1.10;;;28.60;99.90;;;;;;4915353;29;20544;-85
2022/06/09 13:10:53;;;;;;;4.40;1.50;;;28.40;99.90;;;;;;4915081;29;20051;-84
2022/06/09 13:13:35;;;;;;;4.50;1.25;;;29.10;99.90;;;;;;4915367;29;20025;-84
2022/06/09 13:16:05;;;;;;;4.45;1.30;;;30.20;99.90;;;;;;4913802;29;20095;-84
2022/06/09 13:18:41;;;;;;;4.13;1.60;;;30.50;99.90;;;;;;4915588;29;20039;-84
2022/06/09 13:21:09;;;;;;;5.70;1.38;;;29.50;99.90;;;;;;4915207;29;20055;-84
2022/06/09 13:23:36;;;;;;;4.03;1.58;;;27.60;99.90;;;;;;4928817;28;20380;-84
2022/06/09 13:26:03;;;;;;;3.63;1.35;;;26.60;99.90;;;;;;4990478;28;20030;-84
2022/06/09 13:28:35;;;;;;;5.88;1.58;;;25.50;99.90;;;;;;4991767;28;20396;-84
2022/06/09 13:31:05;;;;;;;4.55;1.17;;;24.90;99.90;;;;;;4990301;28;20069;-84
2022/06/09 13:33:34;;;;;;;3.92;1.73;;;24.40;99.90;;;;;;4992398;28;20047;-85